Time;durP1;ratioP1;P1;durP2;ratioP2;P2;SDS_P1;SDS_P2;PMS_P1;PMS_P2;Temp;Humidity;BMP_temperature;BMP_pressure;BME280_temperature;BME280_humidity;BME280_pressure;Samples;Min_cycle;Max_cycle;Signal;HPM_P1;HPM_P2
2023/02/26 00:00:37;;;;;;;4.15;3.90;;;4.10;99.90;;;;;;6011274;23;20377;-78
2023/02/26 00:03:04;;;;;;;4.55;4.32;;;4.10;99.90;;;;;;6011058;23;20419;-79
2023/02/26 00:05:31;;;;;;;4.20;3.90;;;3.90;99.90;;;;;;6011410;23;20385;-79
2023/02/26 00:07:58;;;;;;;4.88;4.47;;;3.90;99.90;;;;;;6010802;23;20392;-79
2023/02/26 00:10:25;;;;;;;4.53;4.23;;;3.90;99.90;;;;;;6011755;23;20775;-79
2023/02/26 00:12:52;;;;;;;4.35;4.15;;;3.80;99.90;;;;;;6010002;23;21026;-78
2023/02/26 00:15:19;;;;;;;4.40;4.20;;;3.70;99.90;;;;;;6036416;23;20710;-78
2023/02/26 00:18:03;;;;;;;3.95;3.75;;;3.70;99.90;;;;;;6012438;23;20843;-78
2023/02/26 00:20:30;;;;;;;3.80;3.60;;;3.70;99.90;;;;;;6012320;23;20446;-80
2023/02/26 00:22:57;;;;;;;3.92;3.67;;;3.60;99.90;;;;;;6012187;23;20839;-82
2023/02/26 00:25:24;;;;;;;4.28;4.07;;;3.50;99.90;;;;;;6011430;23;20491;-79
2023/02/26 00:27:51;;;;;;;4.25;3.95;;;3.20;99.90;;;;;;6012841;23;20392;-79
2023/02/26 00:30:19;;;;;;;3.75;3.55;;;3.20;99.90;;;;;;6035781;23;20388;-79
2023/02/26 00:32:46;;;;;;;4.70;4.40;;;3.20;99.90;;;;;;6036051;23;20428;-79
2023/02/26 00:35:14;;;;;;;4.15;3.95;;;3.20;99.90;;;;;;6011711;23;20481;-79
2023/02/26 00:38:05;;;;;;;3.88;3.67;;;3.20;99.90;;;;;;6012109;23;20454;-80
2023/02/26 00:40:45;;;;;;;5.93;5.53;;;3.20;99.90;;;;;;6011668;23;20443;-80
2023/02/26 00:43:23;;;;;;;5.93;5.53;;;3.10;99.90;;;;;;6010574;23;20811;-79
2023/02/26 00:46:06;;;;;;;5.00;4.70;;;3.10;99.90;;;;;;6011394;23;20824;-79
2023/02/26 00:48:45;;;;;;;4.70;4.40;;;3.20;99.90;;;;;;6011508;23;20452;-81
2023/02/26 00:51:40;;;;;;;4.87;4.57;;;3.30;99.90;;;;;;6011571;23;20380;-81
2023/02/26 00:54:22;;;;;;;4.28;4.07;;;3.30;99.90;;;;;;6036545;23;20392;-80
2023/02/26 00:56:50;;;;;;;4.05;3.85;;;3.30;99.90;;;;;;6011958;23;20420;-80
2023/02/26 00:59:18;;;;;;;4.30;4.10;;;3.20;99.90;;;;;;6012201;23;20464;-81
2023/02/26 01:01:45;;;;;;;4.05;3.85;;;3.00;99.90;;;;;;6011504;23;20413;-80
2023/02/26 01:04:14;;;;;;;4.22;4.03;;;3.00;99.90;;;;;;6011681;23;20383;-81
2023/02/26 01:06:44;;;;;;;4.50;4.30;;;3.00;99.90;;;;;;6011224;23;20436;-79
2023/02/26 01:09:26;;;;;;;4.20;4.00;;;2.90;99.90;;;;;;6012078;23;20827;-82
2023/02/26 01:11:55;;;;;;;4.57;4.28;;;2.90;99.90;;;;;;6035962;23;20376;-81
2023/02/26 01:14:24;;;;;;;5.07;4.78;;;2.90;99.90;;;;;;6012001;23;20438;-82
2023/02/26 01:16:54;;;;;;;4.53;4.22;;;3.00;99.90;;;;;;6010966;23;20440;-81
2023/02/26 01:19:42;;;;;;;3.95;3.75;;;3.00;99.90;;;;;;6012104;23;20459;-81
2023/02/26 01:22:26;;;;;;;4.28;4.07;;;3.00;99.90;;;;;;6011206;23;20477;-81
2023/02/26 01:25:03;;;;;;;3.88;3.67;;;3.10;99.90;;;;;;6011011;23;20449;-81
2023/02/26 01:27:30;;;;;;;3.97;3.78;;;3.10;99.90;;;;;;6012135;23;20409;-80
2023/02/26 01:29:57;;;;;;;4.00;3.80;;;3.10;99.90;;;;;;6010915;23;20392;-81
2023/02/26 01:32:37;;;;;;;4.30;4.00;;;3.00;99.90;;;;;;6011647;23;20452;-79
2023/02/26 01:35:20;;;;;;;3.72;3.53;;;3.00;99.90;;;;;;6035579;23;20760;-79
2023/02/26 01:37:55;;;;;;;4.18;3.97;;;3.00;99.90;;;;;;6010587;23;20384;-79
2023/02/26 01:40:43;;;;;;;3.15;3.05;;;2.90;99.90;;;;;;6011840;23;20734;-78
2023/02/26 01:43:18;;;;;;;3.83;3.63;;;2.90;99.90;;;;;;6010917;23;20385;-78
2023/02/26 01:45:58;;;;;;;3.37;3.17;;;2.80;99.90;;;;;;6011677;23;20418;-79
2023/02/26 01:48:58;;;;;;;2.78;2.65;;;2.80;99.90;;;;;;6011015;23;20388;-79
2023/02/26 01:51:46;;;;;;;2.90;2.80;;;2.60;99.90;;;;;;5988538;23;20429;-81
2023/02/26 01:54:15;;;;;;;3.63;3.42;;;2.50;99.90;;;;;;6035078;23;20393;-81
2023/02/26 01:56:44;;;;;;;3.50;3.30;;;2.50;99.90;;;;;;6011694;23;20847;-81
2023/02/26 01:59:15;;;;;;;3.58;3.38;;;2.40;99.90;;;;;;6010847;23;20484;-81
2023/02/26 02:01:44;;;;;;;2.90;2.80;;;2.30;99.90;;;;;;5992554;23;20435;-76
2023/02/26 02:04:14;;;;;;;3.08;2.97;;;2.40;99.90;;;;;;6008112;23;20440;-76
2023/02/26 02:06:43;;;;;;;2.97;2.87;;;2.40;99.90;;;;;;6009248;23;20825;-76
2023/02/26 02:09:11;;;;;;;2.92;2.83;;;2.30;99.90;;;;;;6008655;23;20447;-76
2023/02/26 02:11:56;;;;;;;2.78;2.67;;;2.20;99.90;;;;;;6010866;23;20432;-75
2023/02/26 02:14:33;;;;;;;1.88;1.77;;;2.40;99.90;;;;;;6010197;23;20499;-76
2023/02/26 02:17:32;;;;;;;2.40;2.30;;;2.50;99.90;;;;;;6035737;23;20401;-75
2023/02/26 02:20:36;;;;;;;2.20;2.10;;;2.70;99.90;;;;;;6010432;23;20445;-75
2023/02/26 02:23:29;;;;;;;0.90;0.90;;;2.80;99.90;;;;;;6034338;23;20473;-75
2023/02/26 02:26:47;;;;;;;1.20;1.10;;;3.20;99.90;;;;;;6007374;23;20388;-76
2023/02/26 02:29:43;;;;;;;1.42;1.33;;;3.70;99.90;;;;;;6016916;23;20436;-77
2023/02/26 02:33:08;;;;;;;0.70;0.70;;;3.80;99.90;;;;;;6010161;23;20377;-76
2023/02/26 02:35:42;;;;;;;0.82;0.60;;;4.40;99.90;;;;;;6002622;23;20440;-77
2023/02/26 02:38:27;;;;;;;0.82;0.60;;;4.90;98.50;;;;;;6034272;23;20404;-76
2023/02/26 02:41:03;;;;;;;0.77;0.77;;;5.20;95.50;;;;;;6009999;23;20381;-76
2023/02/26 02:43:33;;;;;;;1.02;0.70;;;5.30;95.00;;;;;;6009706;23;20760;-77
2023/02/26 02:46:03;;;;;;;0.90;0.80;;;5.30;94.20;;;;;;6034951;23;20376;-77
2023/02/26 02:48:37;;;;;;;0.75;0.75;;;5.20;94.80;;;;;;6010897;23;20727;-77
2023/02/26 02:51:12;;;;;;;0.70;0.70;;;5.20;95.10;;;;;;6012593;23;20385;-76
2023/02/26 02:53:49;;;;;;;0.93;0.70;;;5.10;95.60;;;;;;6011515;23;20468;-76
2023/02/26 02:56:22;;;;;;;0.77;0.73;;;5.00;95.50;;;;;;6012420;23;20425;-75
2023/02/26 02:58:56;;;;;;;0.77;0.77;;;5.00;94.50;;;;;;6011518;23;20398;-77
2023/02/26 03:01:26;;;;;;;2.20;1.27;;;5.00;94.40;;;;;;6012502;23;20444;-77
2023/02/26 03:04:15;;;;;;;1.33;1.30;;;4.80;96.00;;;;;;6035681;23;20443;-77
2023/02/26 03:06:45;;;;;;;1.40;1.38;;;4.70;97.50;;;;;;6011078;23;20610;-76
2023/02/26 03:09:12;;;;;;;1.52;1.45;;;4.50;99.10;;;;;;6036415;23;20777;-76
2023/02/26 03:11:39;;;;;;;1.55;1.50;;;4.30;99.60;;;;;;6010735;23;20420;-76
2023/02/26 03:14:09;;;;;;;1.98;1.88;;;4.10;99.90;;;;;;6037484;23;20460;-76
2023/02/26 03:16:44;;;;;;;1.90;1.80;;;3.90;99.90;;;;;;6011319;23;20389;-76
2023/02/26 03:19:34;;;;;;;1.80;1.70;;;3.70;99.90;;;;;;6012304;23;20420;-76
2023/02/26 03:22:12;;;;;;;1.80;1.70;;;3.50;99.90;;;;;;6011786;23;20432;-76
2023/02/26 03:25:01;;;;;;;1.83;1.73;;;3.40;99.90;;;;;;6011397;23;20451;-76
2023/02/26 03:27:40;;;;;;;1.77;1.67;;;3.20;99.90;;;;;;6012590;23;20744;-76
2023/02/26 03:30:34;;;;;;;1.93;1.83;;;3.10;99.90;;;;;;6034495;23;20409;-76
2023/02/26 03:33:07;;;;;;;2.10;2.00;;;3.00;99.90;;;;;;6031466;23;20444;-76
2023/02/26 03:35:58;;;;;;;1.95;1.85;;;3.10;99.90;;;;;;6036361;23;20393;-76
2023/02/26 03:38:29;;;;;;;1.88;1.73;;;3.10;99.90;;;;;;6036110;23;20419;-76
2023/02/26 03:41:07;;;;;;;2.00;1.90;;;3.00;99.90;;;;;;6011989;23;20392;-76
2023/02/26 03:43:54;;;;;;;1.90;1.80;;;3.00;99.90;;;;;;6011106;23;20449;-76
2023/02/26 03:46:29;;;;;;;2.88;2.67;;;2.80;99.90;;;;;;6011156;23;20453;-77
2023/02/26 03:49:01;;;;;;;2.13;2.03;;;2.80;99.90;;;;;;6011720;23;20452;-77
2023/02/26 03:51:28;;;;;;;2.08;1.98;;;2.80;99.90;;;;;;6009536;23;20432;-77
2023/02/26 03:54:09;;;;;;;2.10;2.00;;;2.80;99.90;;;;;;6011685;23;20416;-77
2023/02/26 03:56:46;;;;;;;2.30;2.20;;;2.70;99.90;;;;;;6011148;23;20398;-77
2023/02/26 03:59:15;;;;;;;2.42;2.33;;;2.60;99.90;;;;;;6011089;23;20380;-77
2023/02/26 04:01:53;;;;;;;2.40;2.30;;;2.70;99.90;;;;;;6012245;23;20419;-76
2023/02/26 04:04:45;;;;;;;2.00;1.90;;;2.70;99.90;;;;;;6035678;23;20465;-77
2023/02/26 04:07:15;;;;;;;2.30;2.20;;;2.70;99.90;;;;;;6036133;23;20384;-76
2023/02/26 04:09:50;;;;;;;2.30;2.20;;;2.70;99.90;;;;;;6011197;23;20428;-76
2023/02/26 04:12:27;;;;;;;2.20;2.10;;;2.80;99.90;;;;;;6036330;23;20389;-76
2023/02/26 04:14:56;;;;;;;2.17;2.08;;;2.70;99.90;;;;;;6010757;23;20385;-77
2023/02/26 04:17:23;;;;;;;2.05;1.95;;;2.60;99.90;;;;;;6011824;23;20491;-76
2023/02/26 04:19:50;;;;;;;2.50;2.40;;;2.60;99.90;;;;;;6035355;23;20396;-76
2023/02/26 04:22:17;;;;;;;2.88;2.78;;;2.50;99.90;;;;;;6011531;23;20400;-76
2023/02/26 04:24:45;;;;;;;2.90;2.70;;;2.30;99.90;;;;;;6010489;23;21186;-76
2023/02/26 04:27:12;;;;;;;2.50;2.40;;;2.20;99.90;;;;;;6011422;23;20389;-76
2023/02/26 04:29:39;;;;;;;2.60;2.50;;;2.10;99.90;;;;;;6035224;23;20389;-76
2023/02/26 04:32:06;;;;;;;3.83;3.63;;;2.00;99.90;;;;;;6011259;23;20388;-77
2023/02/26 04:34:33;;;;;;;3.95;3.75;;;1.80;99.90;;;;;;6010374;23;20847;-77
2023/02/26 04:37:00;;;;;;;3.22;3.13;;;1.80;99.90;;;;;;6010756;23;20385;-77
2023/02/26 04:39:26;;;;;;;2.70;2.60;;;1.90;99.90;;;;;;6011583;23;20440;-76
2023/02/26 04:41:53;;;;;;;2.35;2.25;;;1.90;99.90;;;;;;6010402;23;20396;-76
2023/02/26 04:44:20;;;;;;;2.60;2.50;;;2.00;99.90;;;;;;6036174;23;20464;-76
2023/02/26 04:46:47;;;;;;;2.75;2.65;;;1.90;99.90;;;;;;6010263;23;20385;-77
2023/02/26 04:49:14;;;;;;;2.38;2.28;;;2.00;99.90;;;;;;6011422;23;20461;-77
2023/02/26 04:51:41;;;;;;;2.78;2.63;;;2.00;99.90;;;;;;6034967;23;20392;-77
2023/02/26 04:54:08;;;;;;;2.80;2.60;;;2.00;99.90;;;;;;6010997;23;20389;-76
2023/02/26 04:56:34;;;;;;;2.85;2.75;;;2.00;99.90;;;;;;6034809;23;20465;-77
2023/02/26 04:59:01;;;;;;;2.90;2.70;;;2.00;99.90;;;;;;6036279;23;20377;-76
2023/02/26 05:01:29;;;;;;;3.23;3.03;;;2.00;99.90;;;;;;6011026;23;20775;-77
2023/02/26 05:03:56;;;;;;;3.10;2.90;;;2.00;99.90;;;;;;6033946;23;20427;-77
2023/02/26 05:06:23;;;;;;;3.08;2.88;;;2.10;99.90;;;;;;6035953;23;20764;-76
2023/02/26 05:08:50;;;;;;;2.75;2.65;;;2.10;99.90;;;;;;6034885;23;20395;-76
2023/02/26 05:11:17;;;;;;;3.03;2.92;;;2.10;99.90;;;;;;6011173;23;20376;-76
2023/02/26 05:13:44;;;;;;;3.08;2.88;;;2.20;99.90;;;;;;6035342;23;20388;-76
2023/02/26 05:16:11;;;;;;;2.72;2.60;;;2.30;99.90;;;;;;5988299;23;20417;-76
2023/02/26 05:18:38;;;;;;;3.00;2.90;;;2.30;99.90;;;;;;6010277;23;20388;-77
2023/02/26 05:21:05;;;;;;;3.30;3.10;;;2.40;99.90;;;;;;6010955;23;20381;-76
2023/02/26 05:23:33;;;;;;;3.00;2.85;;;2.50;99.90;;;;;;6036112;23;20476;-76
2023/02/26 05:26:00;;;;;;;2.63;2.53;;;2.50;99.90;;;;;;6035211;23;20412;-76
2023/02/26 05:28:27;;;;;;;2.58;2.47;;;2.40;99.90;;;;;;6035514;23;20444;-77
2023/02/26 05:30:56;;;;;;;2.67;2.57;;;2.40;99.90;;;;;;6034784;23;20385;-77
2023/02/26 05:33:23;;;;;;;2.63;2.53;;;2.40;99.90;;;;;;6035758;23;20385;-77
2023/02/26 05:35:50;;;;;;;2.50;2.40;;;2.40;99.90;;;;;;6009915;23;20396;-76
2023/02/26 05:38:17;;;;;;;2.70;2.60;;;2.40;99.90;;;;;;6010768;23;20436;-76
2023/02/26 05:40:44;;;;;;;2.55;2.45;;;2.50;99.90;;;;;;6008821;23;20424;-76
2023/02/26 05:43:10;;;;;;;2.83;2.72;;;2.60;99.90;;;;;;6010895;23;20392;-77
2023/02/26 05:45:37;;;;;;;3.10;2.95;;;2.60;99.90;;;;;;5999980;23;20902;-76
2023/02/26 05:48:04;;;;;;;2.85;2.75;;;2.70;99.90;;;;;;6035447;23;20891;-76
2023/02/26 05:50:31;;;;;;;2.65;2.55;;;2.80;99.90;;;;;;6010361;23;20444;-76
2023/02/26 05:52:58;;;;;;;3.22;3.10;;;2.80;99.90;;;;;;6032584;23;20760;-77
2023/02/26 05:55:25;;;;;;;3.00;2.90;;;2.80;99.90;;;;;;6010517;23;20381;-77
2023/02/26 05:57:52;;;;;;;3.33;3.20;;;2.90;99.90;;;;;;6009833;23;20768;-76
2023/02/26 06:00:19;;;;;;;3.55;3.35;;;3.00;99.90;;;;;;6010889;23;20730;-76
2023/02/26 06:02:46;;;;;;;2.45;2.35;;;3.10;99.90;;;;;;6009696;23;20411;-77
2023/02/26 06:05:13;;;;;;;3.30;3.10;;;3.10;99.90;;;;;;6035550;23;20444;-76
2023/02/26 06:07:40;;;;;;;3.40;3.20;;;3.20;99.90;;;;;;6010685;23;20412;-76
2023/02/26 06:10:08;;;;;;;3.50;3.30;;;3.30;99.90;;;;;;6009862;23;20387;-76
2023/02/26 06:12:36;;;;;;;4.28;4.07;;;3.30;99.90;;;;;;6010371;23;20748;-76
2023/02/26 06:15:04;;;;;;;3.08;2.97;;;3.40;99.90;;;;;;6009349;23;20429;-76
2023/02/26 06:17:32;;;;;;;3.45;3.25;;;3.50;99.90;;;;;;6010442;23;20388;-76
2023/02/26 06:19:59;;;;;;;3.10;3.00;;;3.50;99.90;;;;;;6009378;23;20384;-76
2023/02/26 06:22:26;;;;;;;2.60;2.50;;;3.60;99.90;;;;;;6007649;23;20452;-76
2023/02/26 06:24:54;;;;;;;3.10;3.00;;;3.60;99.90;;;;;;6010086;23;20460;-76
2023/02/26 06:27:21;;;;;;;2.65;2.55;;;3.60;99.90;;;;;;6034022;23;20393;-76
2023/02/26 06:29:48;;;;;;;3.00;2.90;;;3.60;99.90;;;;;;6009377;23;20389;-77
2023/02/26 06:32:15;;;;;;;2.90;2.70;;;3.60;99.90;;;;;;6010754;23;20404;-76
2023/02/26 06:34:43;;;;;;;2.88;2.78;;;3.70;99.90;;;;;;6010384;23;20768;-76
2023/02/26 06:37:09;;;;;;;2.75;2.65;;;3.70;99.90;;;;;;6034448;23;20396;-76
2023/02/26 06:39:36;;;;;;;2.50;2.40;;;3.70;99.90;;;;;;6009344;23;20408;-76
2023/02/26 06:42:04;;;;;;;2.90;2.80;;;3.80;99.90;;;;;;6034027;23;20882;-76
2023/02/26 06:44:31;;;;;;;2.95;2.85;;;3.80;99.90;;;;;;6010574;23;20392;-76
2023/02/26 06:46:58;;;;;;;2.78;2.67;;;4.00;99.90;;;;;;6009090;23;20385;-76
2023/02/26 06:49:25;;;;;;;2.63;2.53;;;4.00;99.90;;;;;;6035429;23;20396;-76
2023/02/26 06:51:52;;;;;;;2.60;2.47;;;4.10;99.90;;;;;;6009351;23;20413;-76
2023/02/26 06:54:19;;;;;;;2.30;2.20;;;4.20;99.90;;;;;;6035279;23;20388;-77
2023/02/26 06:56:46;;;;;;;2.00;1.90;;;4.20;99.90;;;;;;6035274;23;20768;-76
2023/02/26 06:59:14;;;;;;;2.40;2.30;;;4.20;99.90;;;;;;6009681;23;20385;-76
2023/02/26 07:01:42;;;;;;;2.50;2.40;;;4.30;99.90;;;;;;6035194;23;20444;-76
2023/02/26 07:04:09;;;;;;;1.90;1.80;;;4.30;99.90;;;;;;5985143;23;20447;-76
2023/02/26 07:06:36;;;;;;;2.25;2.15;;;4.30;99.90;;;;;;6009634;23;20847;-76
2023/02/26 07:09:03;;;;;;;1.90;1.80;;;4.40;99.90;;;;;;6009137;23;20408;-76
2023/02/26 07:11:30;;;;;;;1.85;1.75;;;4.40;99.90;;;;;;6034863;23;20424;-76
2023/02/26 07:13:56;;;;;;;1.23;1.13;;;4.50;99.90;;;;;;6009378;23;20433;-76
2023/02/26 07:16:23;;;;;;;1.50;1.40;;;4.70;99.90;;;;;;6010315;23;20376;-77
2023/02/26 07:18:51;;;;;;;1.60;1.50;;;4.90;99.90;;;;;;6009672;23;20428;-76
2023/02/26 07:21:18;;;;;;;1.30;1.30;;;5.00;99.90;;;;;;6010397;23;20373;-76
2023/02/26 07:23:45;;;;;;;1.40;1.30;;;5.10;99.90;;;;;;6010582;23;20381;-76
2023/02/26 07:26:16;;;;;;;1.40;1.30;;;5.10;99.90;;;;;;6008981;23;20712;-76
2023/02/26 07:28:43;;;;;;;1.00;1.00;;;5.20;99.90;;;;;;6010101;23;20388;-76
2023/02/26 07:31:10;;;;;;;1.47;1.37;;;5.30;93.70;;;;;;6009168;23;20950;-76
2023/02/26 07:33:38;;;;;;;2.13;1.92;;;5.90;89.90;;;;;;6012071;23;20791;-76
2023/02/26 07:36:06;;;;;;;1.95;1.83;;;6.20;97.20;;;;;;6035536;23;20496;-76
2023/02/26 07:38:32;;;;;;;2.63;2.42;;;6.20;99.90;;;;;;6012085;23;20385;-75
2023/02/26 07:40:59;;;;;;;2.83;2.63;;;6.30;99.90;;;;;;6011181;23;20437;-77
2023/02/26 07:43:26;;;;;;;3.05;2.85;;;6.30;99.90;;;;;;6011824;23;20910;-76
2023/02/26 07:45:53;;;;;;;2.85;2.65;;;6.30;99.90;;;;;;6011500;23;20377;-77
2023/02/26 07:48:20;;;;;;;2.42;2.22;;;6.30;99.90;;;;;;6011333;23;20380;-76
2023/02/26 07:50:51;;;;;;;2.70;2.50;;;6.30;99.90;;;;;;6011778;23;20843;-76
2023/02/26 07:53:19;;;;;;;2.00;1.90;;;6.30;99.90;;;;;;6010857;23;20806;-76
2023/02/26 07:55:46;;;;;;;2.10;2.00;;;6.30;99.90;;;;;;6011877;23;20401;-76
2023/02/26 07:58:13;;;;;;;1.85;1.75;;;6.30;99.90;;;;;;6010654;23;20412;-76
2023/02/26 08:00:40;;;;;;;1.95;1.75;;;6.30;99.90;;;;;;6012072;23;20757;-76
2023/02/26 08:03:07;;;;;;;1.38;1.27;;;6.30;99.90;;;;;;6010534;23;20840;-76
2023/02/26 08:05:35;;;;;;;1.33;1.00;;;6.20;99.90;;;;;;6012049;23;20756;-78
2023/02/26 08:08:02;;;;;;;0.82;0.82;;;6.10;99.90;;;;;;6011134;23;20401;-77
2023/02/26 08:10:29;;;;;;;0.80;0.80;;;5.90;99.90;;;;;;6012180;23;20862;-77
2023/02/26 08:12:56;;;;;;;1.13;0.80;;;5.80;99.90;;;;;;6012058;23;20459;-77
2023/02/26 08:15:23;;;;;;;0.80;0.80;;;5.80;99.90;;;;;;6035892;23;20384;-77
2023/02/26 08:17:53;;;;;;;0.73;0.73;;;5.80;99.90;;;;;;6012156;23;20436;-76
2023/02/26 08:20:20;;;;;;;0.60;0.60;;;5.70;99.90;;;;;;6010675;23;20729;-78
2023/02/26 08:22:47;;;;;;;0.70;0.70;;;5.60;99.90;;;;;;6011870;23;20440;-77
2023/02/26 08:25:14;;;;;;;0.47;0.47;;;5.50;99.90;;;;;;6010882;23;20381;-78
2023/02/26 08:27:41;;;;;;;0.98;0.60;;;5.40;99.90;;;;;;6011963;23;20408;-77
2023/02/26 08:30:09;;;;;;;0.40;0.40;;;5.40;99.90;;;;;;6010768;23;20476;-77
2023/02/26 08:32:38;;;;;;;0.63;0.63;;;5.20;99.90;;;;;;5988297;23;20472;-77
2023/02/26 08:35:05;;;;;;;0.70;0.70;;;5.10;99.90;;;;;;6010844;23;20412;-78
2023/02/26 08:37:32;;;;;;;0.50;0.50;;;5.10;99.90;;;;;;6011740;23;20369;-78
2023/02/26 08:39:59;;;;;;;0.30;0.30;;;5.00;99.90;;;;;;6011987;23;20391;-78
2023/02/26 08:42:26;;;;;;;0.43;0.43;;;4.90;99.90;;;;;;6010146;23;20433;-77
2023/02/26 08:44:53;;;;;;;0.20;0.20;;;4.80;99.90;;;;;;6011133;23;20380;-77
2023/02/26 08:47:20;;;;;;;0.40;0.40;;;4.70;99.90;;;;;;6010631;23;20436;-77
2023/02/26 08:49:54;;;;;;;0.22;0.22;;;4.50;99.90;;;;;;6012960;23;20411;-78
2023/02/26 08:52:22;;;;;;;0.30;0.30;;;4.40;99.90;;;;;;6010716;23;20452;-78
2023/02/26 08:54:49;;;;;;;0.30;0.30;;;4.40;99.90;;;;;;6011982;23;20441;-79
2023/02/26 08:57:16;;;;;;;0.20;0.20;;;4.40;99.90;;;;;;6011044;23;20381;-77
2023/02/26 08:59:43;;;;;;;0.20;0.20;;;4.30;99.90;;;;;;6011560;23;20840;-78
2023/02/26 09:02:10;;;;;;;0.30;0.30;;;4.20;99.90;;;;;;6010632;23;20897;-78
2023/02/26 09:04:37;;;;;;;0.30;0.30;;;4.20;99.90;;;;;;6011157;23;20381;-78
2023/02/26 09:07:05;;;;;;;0.30;0.30;;;4.10;99.90;;;;;;6010802;23;20404;-77
2023/02/26 09:09:32;;;;;;;0.20;0.20;;;4.10;99.90;;;;;;6011281;23;20396;-78
2023/02/26 09:11:59;;;;;;;0.30;0.30;;;4.10;99.90;;;;;;6011224;23;20847;-78
2023/02/26 09:14:26;;;;;;;0.30;0.30;;;4.20;99.90;;;;;;6010633;23;20373;-78
2023/02/26 09:16:53;;;;;;;0.30;0.30;;;4.20;99.90;;;;;;6011489;23;20456;-78
2023/02/26 09:19:20;;;;;;;0.20;0.20;;;4.20;99.90;;;;;;6010740;23;20409;-78
2023/02/26 09:21:47;;;;;;;0.25;0.25;;;4.20;99.90;;;;;;6011889;23;20384;-78
2023/02/26 09:24:14;;;;;;;0.30;0.30;;;4.30;99.90;;;;;;6010481;23;20377;-78
2023/02/26 09:26:41;;;;;;;0.20;0.20;;;4.30;99.90;;;;;;6011456;23;20401;-77
2023/02/26 09:29:08;;;;;;;0.20;0.20;;;4.30;99.90;;;;;;6010088;23;20413;-78
2023/02/26 09:31:35;;;;;;;0.20;0.20;;;4.10;99.90;;;;;;6011748;23;20460;-77
2023/02/26 09:34:02;;;;;;;0.20;0.20;;;4.00;99.90;;;;;;6011140;23;20385;-79
2023/02/26 09:36:30;;;;;;;0.20;0.20;;;3.90;99.90;;;;;;6010246;23;20769;-77
2023/02/26 09:38:57;;;;;;;0.20;0.20;;;3.80;99.90;;;;;;6036230;23;20400;-76
2023/02/26 09:41:29;;;;;;;0.23;0.23;;;3.90;99.90;;;;;;6010822;23;20405;-77
2023/02/26 09:44:08;;;;;;;0.20;0.20;;;3.90;99.90;;;;;;5988143;23;20384;-79
2023/02/26 09:46:57;;;;;;;0.20;0.20;;;4.10;99.90;;;;;;6034028;23;20379;-77
2023/02/26 09:49:30;;;;;;;0.28;0.28;;;3.80;99.90;;;;;;6010783;23;20380;-79
2023/02/26 09:52:17;;;;;;;0.30;0.30;;;3.80;99.90;;;;;;6011473;23;20403;-78
2023/02/26 09:54:50;;;;;;;0.20;0.20;;;3.80;99.90;;;;;;6033866;23;20425;-78
2023/02/26 09:57:31;;;;;;;0.30;0.30;;;3.90;99.90;;;;;;6011424;23;20381;-77
2023/02/26 09:59:59;;;;;;;0.20;0.20;;;3.90;99.90;;;;;;6010681;23;20432;-78
2023/02/26 10:02:59;;;;;;;0.30;0.30;;;3.90;99.90;;;;;;6011675;23;20388;-77
2023/02/26 10:05:39;;;;;;;0.20;0.20;;;3.90;99.90;;;;;;6034640;23;20515;-78
2023/02/26 10:08:15;;;;;;;0.20;0.20;;;3.90;99.90;;;;;;6034950;23;20381;-77
2023/02/26 10:11:12;;;;;;;0.30;0.30;;;3.80;99.90;;;;;;6011448;23;20408;-78
2023/02/26 10:13:47;;;;;;;0.30;0.30;;;3.90;99.90;;;;;;6010873;23;20902;-78
2023/02/26 10:16:42;;;;;;;0.30;0.30;;;3.90;99.90;;;;;;6011878;23;20488;-78
2023/02/26 10:19:19;;;;;;;0.20;0.20;;;3.90;99.90;;;;;;6010724;23;20467;-78
2023/02/26 10:22:07;;;;;;;0.20;0.20;;;3.80;99.90;;;;;;6010295;23;20443;-77
2023/02/26 10:24:43;;;;;;;0.20;0.20;;;3.80;99.90;;;;;;6009880;23;20432;-78
2023/02/26 10:27:23;;;;;;;0.30;0.30;;;3.90;99.90;;;;;;6011548;23;20377;-78
2023/02/26 10:29:59;;;;;;;0.30;0.30;;;3.80;99.90;;;;;;6033681;23;20384;-78
2023/02/26 10:32:45;;;;;;;0.20;0.20;;;3.80;99.90;;;;;;6010195;23;20424;-78
2023/02/26 10:35:17;;;;;;;0.20;0.20;;;3.70;99.90;;;;;;6010140;23;20385;-78
2023/02/26 10:37:52;;;;;;;0.30;0.30;;;3.60;99.90;;;;;;6010202;23;20377;-81
2023/02/26 10:40:43;;;;;;;1.80;1.60;;;3.60;99.90;;;;;;6011439;23;20444;-82
2023/02/26 10:43:28;;;;;;;1.10;0.98;;;3.60;99.90;;;;;;6035508;23;20138;-79
2023/02/26 10:46:16;;;;;;;1.33;1.20;;;3.40;99.90;;;;;;6036394;23;20023;-79
2023/02/26 10:49:27;;;;;;;2.30;1.30;;;3.40;99.90;;;;;;6035547;23;20048;-80
2023/02/26 10:51:56;;;;;;;2.08;1.30;;;3.30;99.90;;;;;;6003315;23;20059;-81
2023/02/26 10:55:04;;;;;;;2.00;0.90;;;3.30;99.90;;;;;;6012748;23;20074;-79
2023/02/26 10:57:36;;;;;;;1.02;0.82;;;3.20;99.90;;;;;;6035470;23;20031;-78
2023/02/26 11:00:05;;;;;;;1.58;1.27;;;3.20;99.90;;;;;;6013005;23;20023;-81
2023/02/26 11:02:37;;;;;;;1.42;1.33;;;3.40;99.90;;;;;;6005598;23;20024;-81
2023/02/26 11:05:14;;;;;;;1.15;1.05;;;3.40;99.90;;;;;;6007993;23;20108;-79
2023/02/26 11:07:43;;;;;;;1.10;0.95;;;3.40;99.90;;;;;;6008411;23;20056;-80
2023/02/26 11:10:32;;;;;;;1.60;1.50;;;3.30;99.90;;;;;;6010733;23;20024;-81
2023/02/26 11:12:59;;;;;;;1.40;1.30;;;3.20;99.90;;;;;;6007505;23;20491;-82
2023/02/26 11:15:26;;;;;;;;;;;3.40;99.90;;;;;;6009389;23;20084;-82
2023/02/26 11:17:56;;;;;;;3.65;2.33;;;3.30;99.90;;;;;;6008867;23;19978;-82
2023/02/26 11:20:41;;;;;;;2.00;1.80;;;3.40;99.90;;;;;;6009701;23;20080;-81
2023/02/26 11:23:13;;;;;;;1.10;1.00;;;3.50;99.90;;;;;;6032360;23;20034;-80
2023/02/26 11:25:40;;;;;;;1.58;1.10;;;3.50;99.90;;;;;;6009927;23;20363;-82
2023/02/26 11:28:19;;;;;;;0.70;0.70;;;3.50;99.90;;;;;;6009097;23;20051;-79
2023/02/26 11:30:47;;;;;;;2.17;0.85;;;3.60;99.90;;;;;;6008769;23;20020;-82
2023/02/26 11:33:26;;;;;;;1.98;0.80;;;3.60;99.90;;;;;;6008875;23;20034;-80
2023/02/26 11:35:58;;;;;;;0.85;0.75;;;3.70;99.90;;;;;;6007678;23;20027;-80
2023/02/26 11:38:26;;;;;;;1.02;0.80;;;3.70;99.90;;;;;;6007854;23;20047;-80
2023/02/26 11:40:56;;;;;;;0.70;0.60;;;3.80;99.90;;;;;;6007330;23;20262;-82
2023/02/26 11:43:32;;;;;;;1.73;0.88;;;3.70;99.90;;;;;;6007706;23;20023;-80
2023/02/26 11:46:01;;;;;;;0.80;0.77;;;3.70;99.90;;;;;;6007628;23;20419;-83
2023/02/26 11:48:43;;;;;;;4.32;3.15;;;3.70;99.90;;;;;;6009348;23;20462;-81
2023/02/26 11:51:15;;;;;;;1.13;0.90;;;3.80;99.90;;;;;;6008527;23;20395;-80
2023/02/26 11:53:49;;;;;;;2.58;0.60;;;3.80;99.90;;;;;;6008824;23;20471;-80
2023/02/26 11:56:39;;;;;;;1.10;0.95;;;3.80;99.90;;;;;;6007212;23;20374;-80
2023/02/26 11:59:20;;;;;;;1.20;0.95;;;3.80;99.90;;;;;;6006794;23;20386;-80
2023/02/26 12:01:48;;;;;;;1.20;1.10;;;3.70;99.90;;;;;;5985175;23;20718;-80
2023/02/26 12:04:22;;;;;;;15.30;12.52;;;3.70;99.90;;;;;;6010534;23;20379;-81
2023/02/26 12:06:50;;;;;;;11.13;9.65;;;3.40;99.90;;;;;;6011416;23;20393;-82
2023/02/26 12:09:18;;;;;;;1.95;1.38;;;3.60;99.90;;;;;;5988030;23;20732;-81
2023/02/26 12:12:06;;;;;;;5.50;4.68;;;3.20;99.90;;;;;;6011232;23;20772;-81
2023/02/26 12:14:43;;;;;;;3.30;2.35;;;3.00;99.90;;;;;;6034312;23;20381;-80
2023/02/26 12:17:38;;;;;;;3.13;2.40;;;2.70;99.90;;;;;;6010601;23;20417;-81
2023/02/26 12:20:32;;;;;;;2.20;1.50;;;2.70;99.90;;;;;;6010873;23;20473;-82
2023/02/26 12:23:20;;;;;;;1.75;1.33;;;2.70;99.90;;;;;;6010199;23;20477;-80
2023/02/26 12:26:22;;;;;;;1.13;0.80;;;2.60;99.90;;;;;;6009896;23;20965;-82
2023/02/26 12:29:13;;;;;;;1.00;0.90;;;2.90;99.90;;;;;;6010132;23;20457;-80
2023/02/26 12:31:43;;;;;;;2.53;0.80;;;3.20;99.90;;;;;;6011178;23;20473;-81
2023/02/26 12:34:18;;;;;;;1.10;1.00;;;3.00;99.90;;;;;;6012275;23;20427;-81
2023/02/26 12:37:24;;;;;;;1.30;1.20;;;3.20;99.90;;;;;;6010140;23;20465;-80
2023/02/26 12:40:14;;;;;;;1.48;1.17;;;3.20;99.90;;;;;;6010879;23;20477;-79
2023/02/26 12:42:51;;;;;;;1.48;1.10;;;3.40;99.90;;;;;;6010531;23;20449;-79
2023/02/26 12:45:46;;;;;;;1.42;1.30;;;3.40;99.90;;;;;;6010389;23;20420;-80
2023/02/26 12:48:44;;;;;;;2.03;1.83;;;3.20;99.90;;;;;;5996580;23;20389;-80
2023/02/26 12:51:16;;;;;;;1.98;1.60;;;3.00;99.90;;;;;;6009053;23;20421;-79
2023/02/26 12:53:46;;;;;;;1.83;1.63;;;2.80;99.90;;;;;;6010010;23;20419;-79
2023/02/26 12:56:39;;;;;;;2.15;1.88;;;2.90;99.90;;;;;;6010305;23;20997;-80
2023/02/26 12:59:27;;;;;;;1.63;1.40;;;2.90;99.90;;;;;;6009959;23;20863;-80
2023/02/26 13:02:33;;;;;;;2.58;1.77;;;2.80;99.90;;;;;;6034370;23;20449;-81
2023/02/26 13:05:24;;;;;;;2.93;2.10;;;2.90;99.90;;;;;;6004740;23;20557;-82
2023/02/26 13:08:00;;;;;;;2.17;1.90;;;2.90;99.90;;;;;;6010644;23;20446;-80
2023/02/26 13:10:54;;;;;;;2.22;2.03;;;2.60;99.90;;;;;;6035984;23;20376;-78
2023/02/26 13:13:32;;;;;;;3.58;3.22;;;2.50;99.90;;;;;;6034307;23;20425;-79
2023/02/26 13:16:33;;;;;;;5.15;3.25;;;2.30;99.90;;;;;;6010129;23;20453;-80
2023/02/26 13:19:09;;;;;;;2.92;2.60;;;2.20;99.90;;;;;;6010338;23;20482;-82
2023/02/26 13:21:45;;;;;;;2.60;2.10;;;2.20;99.90;;;;;;6010839;23;20441;-82
2023/02/26 13:24:26;;;;;;;2.20;2.00;;;2.20;99.90;;;;;;6009148;23;20428;-79
2023/02/26 13:26:54;;;;;;;1.85;1.73;;;2.40;99.90;;;;;;6010566;23;20440;-79
2023/02/26 13:29:29;;;;;;;2.10;1.60;;;2.40;99.90;;;;;;6010289;23;20799;-82
2023/02/26 13:32:01;;;;;;;2.10;1.50;;;2.40;99.90;;;;;;5985271;23;20532;-80